createdAt,value
2023-05-25T00:04:22.372Z,11.27
2023-05-25T00:09:26.050Z,11.15
2023-05-25T00:14:31.449Z,11.07
2023-05-25T00:19:35.132Z,10.94
2023-05-25T00:24:43.907Z,10.87
2023-05-25T00:29:47.957Z,10.77
2023-05-25T00:34:51.795Z,10.73
2023-05-25T00:39:55.230Z,10.75
2023-05-25T00:44:59.191Z,10.76
2023-05-25T00:50:04.428Z,10.84
2023-05-25T00:55:13.592Z,10.98
2023-05-25T01:00:18.413Z,11.07
2023-05-25T01:05:25.560Z,11.08
2023-05-25T01:10:32.617Z,11.23
2023-05-25T01:15:39.678Z,11.30
2023-05-25T01:20:59.739Z,11.42
2023-05-25T01:26:07.922Z,11.39
2023-05-25T01:31:12.154Z,11.30
2023-05-25T01:36:15.890Z,11.28
2023-05-25T01:41:19.545Z,11.32
2023-05-25T01:46:39.162Z,11.41
2023-05-25T01:51:56.069Z,11.47
2023-05-25T01:57:02.522Z,11.67
2023-05-25T02:02:07.557Z,11.73
2023-05-25T02:07:12.449Z,11.75
2023-05-25T02:12:16.046Z,11.74
2023-05-25T02:17:20.056Z,11.73
2023-05-25T02:22:24.706Z,11.83
2023-05-25T02:27:28.521Z,11.96
2023-05-25T02:32:33.945Z,12.07
2023-05-25T02:37:39.746Z,12.18
2023-05-25T02:42:45.493Z,12.24
2023-05-25T02:47:49.351Z,12.22
2023-05-25T02:52:53.727Z,12.19
2023-05-25T02:57:58.788Z,12.15
2023-05-25T03:03:27.117Z,12.04
2023-05-25T03:08:31.837Z,11.95
2023-05-25T03:13:36.740Z,11.86
2023-05-25T03:18:41.030Z,11.68
2023-05-25T03:23:46.076Z,11.44
2023-05-25T03:28:50.359Z,11.08
2023-05-25T03:33:54.213Z,11.03
2023-05-25T03:39:03.700Z,10.86
2023-05-25T03:44:08.026Z,10.61
2023-05-25T03:49:14.369Z,10.44
2023-05-25T03:54:18.817Z,10.21
2023-05-25T03:59:26.009Z,10.14
2023-05-25T04:04:30.273Z,10.19
2023-05-25T04:09:34.881Z,10.42
2023-05-25T04:14:38.728Z,10.72
2023-05-25T04:19:42.105Z,10.92
2023-05-25T04:24:47.629Z,11.18
2023-05-25T04:29:51.687Z,11.52
2023-05-25T04:35:21.777Z,11.83
2023-05-25T04:40:28.322Z,12.03
2023-05-25T04:45:33.589Z,12.16
2023-05-25T04:50:40.445Z,12.38
2023-05-25T04:55:45.443Z,12.50
2023-05-25T05:00:51.273Z,12.58
2023-05-25T05:05:57.555Z,12.65
2023-05-25T05:11:05.082Z,12.84
2023-05-25T05:16:09.618Z,13.00
2023-05-25T05:21:12.966Z,13.17
2023-05-25T05:26:16.754Z,13.25
2023-05-25T05:31:20.697Z,13.21
2023-05-25T05:36:24.220Z,13.32
2023-05-25T05:41:28.287Z,13.64
2023-05-25T05:46:34.276Z,14.19
2023-05-25T05:51:38.670Z,14.14
2023-05-25T05:56:42.772Z,14.49
2023-05-25T06:01:46.732Z,14.85
2023-05-25T06:06:51.999Z,15.29
2023-05-25T06:11:55.501Z,15.58
2023-05-25T06:16:59.465Z,17.41
2023-05-25T06:22:02.913Z,18.52
2023-05-25T06:27:06.995Z,20.22
2023-05-25T06:32:13.240Z,20.49
2023-05-25T06:37:18.156Z,20.79
2023-05-25T06:42:21.739Z,21.38
2023-05-25T06:47:32.981Z,22.15
2023-05-25T06:52:36.381Z,22.52
2023-05-25T06:57:39.754Z,22.74
2023-05-25T07:02:43.354Z,22.14
2023-05-25T07:07:47.136Z,21.30
2023-05-25T07:12:50.900Z,20.52
2023-05-25T07:17:57.574Z,20.50
2023-05-25T07:23:01.855Z,20.22
2023-05-25T07:28:06.218Z,19.42
2023-05-25T07:33:09.691Z,19.92
2023-05-25T07:38:13.290Z,19.79
2023-05-25T07:43:16.848Z,20.35
2023-05-25T07:48:21.308Z,19.98
2023-05-25T07:53:25.452Z,20.42
2023-05-25T07:58:29.632Z,20.57
2023-05-25T08:03:47.997Z,20.21
2023-05-25T08:08:52.891Z,19.64
2023-05-25T08:13:56.442Z,19.81
2023-05-25T08:19:01.960Z,20.20
2023-05-25T08:24:05.607Z,20.65
2023-05-25T08:29:09.974Z,21.52
2023-05-25T08:34:13.189Z,21.84
2023-05-25T08:39:17.418Z,22.10
2023-05-25T08:44:22.393Z,21.94
2023-05-25T08:49:28.678Z,22.03
2023-05-25T08:54:37.098Z,22.59
2023-05-25T08:59:57.777Z,22.27
2023-05-25T09:05:02.712Z,22.69
2023-05-25T09:10:08.734Z,22.45
2023-05-25T09:15:13.177Z,22.65
2023-05-25T09:20:19.612Z,22.60
2023-05-25T09:25:26.685Z,22.94
2023-05-25T09:30:33.203Z,22.88
2023-05-25T09:35:38.335Z,23.16
2023-05-25T09:40:42.136Z,23.68
2023-05-25T09:45:45.980Z,24.58
2023-05-25T09:50:50.161Z,25.09
2023-05-25T09:55:54.742Z,24.52
2023-05-25T10:00:58.608Z,23.88
2023-05-25T10:06:03.332Z,24.28
2023-05-25T10:11:07.883Z,24.18
2023-05-25T10:16:13.598Z,24.37
2023-05-25T10:21:18.948Z,23.67
2023-05-25T10:26:27.403Z,22.42
2023-05-25T10:31:34.412Z,22.00
2023-05-25T10:36:38.932Z,21.68
2023-05-25T10:41:42.675Z,21.36
2023-05-25T10:46:46.652Z,21.47
2023-05-25T10:52:00.117Z,21.31
2023-05-25T10:57:19.538Z,21.11
2023-05-25T11:02:26.072Z,21.25
2023-05-25T11:07:29.700Z,21.82
2023-05-25T11:12:33.461Z,22.16
2023-05-25T11:18:00.427Z,22.47
2023-05-25T11:23:24.286Z,22.81
2023-05-25T11:28:33.038Z,22.33
2023-05-25T11:33:37.403Z,21.67
2023-05-25T11:39:04.381Z,20.90
2023-05-25T11:50:17.737Z,20.59
2023-05-25T11:55:22.030Z,19.76
2023-05-25T12:00:28.710Z,21.08
2023-05-25T12:05:39.190Z,21.52
2023-05-25T12:10:55.202Z,21.67
2023-05-25T12:16:00.596Z,21.50
2023-05-25T12:21:08.579Z,22.29
2023-05-25T12:26:14.335Z,22.39
2023-05-25T12:31:25.092Z,23.64
2023-05-25T12:36:39.021Z,22.46
2023-05-25T12:41:53.975Z,22.45
2023-05-25T12:47:17.642Z,22.31
2023-05-25T12:52:35.741Z,22.46
2023-05-25T12:57:39.433Z,22.73
2023-05-25T13:02:48.044Z,22.76
2023-05-25T13:07:58.243Z,22.59
2023-05-25T13:13:03.785Z,22.63
2023-05-25T13:18:06.951Z,23.90
2023-05-25T13:23:11.003Z,22.77
2023-05-25T13:28:14.360Z,22.86
2023-05-25T13:33:18.277Z,22.92
2023-05-25T13:38:22.723Z,22.48
2023-05-25T13:43:26.897Z,21.49
2023-05-25T13:48:30.780Z,20.99
2023-05-25T13:53:34.006Z,21.18
2023-05-25T13:58:38.062Z,21.26
2023-05-25T14:03:42.094Z,22.06
2023-05-25T14:08:45.665Z,23.01
2023-05-25T14:13:49.287Z,22.29
2023-05-25T14:18:53.284Z,21.91
2023-05-25T14:23:57.707Z,22.23
2023-05-25T14:29:02.392Z,22.64
2023-05-25T14:34:05.539Z,21.99
2023-05-25T14:39:11.506Z,21.50
2023-05-25T14:44:16.920Z,21.33
2023-05-25T14:49:25.123Z,20.87
2023-05-25T14:54:28.320Z,20.55
2023-05-25T14:59:32.164Z,20.09
2023-05-25T15:04:35.371Z,20.28
2023-05-25T15:09:39.294Z,19.92
2023-05-25T15:14:43.148Z,19.33
2023-05-25T15:19:47.119Z,18.79
2023-05-25T15:24:50.473Z,18.58
2023-05-25T15:29:54.278Z,18.12
2023-05-25T15:34:57.519Z,17.97
2023-05-25T15:40:00.855Z,17.91
2023-05-25T15:45:05.082Z,17.77
2023-05-25T15:50:08.531Z,17.72
2023-05-25T15:55:12.538Z,17.87
2023-05-25T16:00:17.804Z,17.83
2023-05-25T16:05:21.925Z,17.48
2023-05-25T16:10:25.574Z,17.12
2023-05-25T16:15:30.097Z,16.94
2023-05-25T16:20:33.516Z,17.00
2023-05-25T16:25:37.102Z,16.75
2023-05-25T16:30:41.047Z,16.52
2023-05-25T16:35:45.007Z,16.41
2023-05-25T16:40:48.842Z,16.08
2023-05-25T16:45:52.399Z,15.96
2023-05-25T16:50:56.614Z,15.97
2023-05-25T16:55:59.846Z,15.70
2023-05-25T17:01:03.821Z,15.39
2023-05-25T17:06:08.113Z,15.29
2023-05-25T17:11:11.955Z,15.34
2023-05-25T17:16:15.412Z,15.16
2023-05-25T17:21:18.673Z,15.25
2023-05-25T17:26:24.412Z,15.29
2023-05-25T17:31:30.736Z,15.09
2023-05-25T17:36:34.962Z,15.41
2023-05-25T17:41:39.121Z,15.16
2023-05-25T17:46:43.421Z,15.08
2023-05-25T17:51:47.446Z,15.07
2023-05-25T17:56:51.012Z,15.18
2023-05-25T18:01:55.248Z,15.39
2023-05-25T18:06:58.798Z,15.31
2023-05-25T18:12:03.996Z,15.12
2023-05-25T18:17:07.834Z,14.94
2023-05-25T18:22:11.539Z,14.81
2023-05-25T18:27:15.320Z,14.72
2023-05-25T18:32:18.522Z,14.66
2023-05-25T18:37:23.460Z,14.56
2023-05-25T18:42:26.667Z,14.47
2023-05-25T18:47:30.794Z,14.33
2023-05-25T18:52:34.495Z,14.38
2023-05-25T18:57:38.846Z,14.37
2023-05-25T19:02:43.304Z,14.40
2023-05-25T19:12:53.505Z,14.52
2023-05-25T19:17:57.958Z,14.52
2023-05-25T19:23:01.969Z,14.53
2023-05-25T19:28:06.302Z,14.30
2023-05-25T19:33:10.331Z,14.34
2023-05-25T19:38:14.444Z,14.34
2023-05-25T19:43:18.075Z,14.22
2023-05-25T19:48:24.584Z,14.20
2023-05-25T19:53:29.091Z,14.15
2023-05-25T19:58:32.913Z,14.12
2023-05-25T20:03:36.876Z,14.04
2023-05-25T20:08:41.179Z,14.15
2023-05-25T20:13:46.656Z,14.12
2023-05-25T20:18:50.185Z,14.08
2023-05-25T20:23:53.999Z,13.95
2023-05-25T20:28:58.345Z,14.06
2023-05-25T20:34:01.517Z,14.15
2023-05-25T20:39:04.626Z,14.08
2023-05-25T20:44:09.243Z,14.03
2023-05-25T20:49:13.180Z,14.09
2023-05-25T20:54:19.636Z,14.07
2023-05-25T20:59:23.792Z,14.09
2023-05-25T21:04:28.852Z,14.07
2023-05-25T21:09:34.523Z,14.17
2023-05-25T21:14:37.972Z,14.21
2023-05-25T21:19:42.034Z,14.11
2023-05-25T21:24:45.295Z,14.08
2023-05-25T21:29:49.024Z,13.85
2023-05-25T21:34:53.458Z,13.85
2023-05-25T21:39:57.198Z,13.92
2023-05-25T21:45:00.816Z,13.93
2023-05-25T21:50:04.229Z,13.86
2023-05-25T21:55:08.755Z,13.96
2023-05-25T22:00:14.769Z,14.14
2023-05-25T22:05:19.411Z,14.18
2023-05-25T22:10:23.459Z,14.15
2023-05-25T22:15:27.268Z,14.15
2023-05-25T22:20:31.256Z,14.03
2023-05-25T22:25:34.813Z,13.90
2023-05-25T22:30:38.978Z,13.86
2023-05-25T22:35:42.539Z,13.78
2023-05-25T22:40:48.023Z,13.69
2023-05-25T22:45:54.553Z,13.66
2023-05-25T22:50:58.400Z,13.48
2023-05-25T22:56:02.089Z,13.45
2023-05-25T23:01:05.802Z,13.37
2023-05-25T23:06:09.038Z,13.23
2023-05-25T23:11:13.151Z,13.21
2023-05-25T23:16:19.101Z,13.16
2023-05-25T23:21:23.137Z,12.99
2023-05-25T23:26:27.249Z,12.99
2023-05-25T23:31:31.052Z,12.93
2023-05-25T23:36:34.769Z,12.81
2023-05-25T23:41:39.030Z,12.93
2023-05-25T23:46:42.471Z,12.87
2023-05-25T23:51:46.121Z,12.92
2023-05-25T23:56:49.609Z,12.96
